createdAt,value
2017-07-26T00:02:03.592Z,83.9
2017-07-26T00:07:03.423Z,86.1
2017-07-26T00:12:03.350Z,86.0
2017-07-26T00:17:04.107Z,87.0
2017-07-26T00:22:03.914Z,87.4
2017-07-26T00:27:03.651Z,87.3
2017-07-26T00:32:03.593Z,88.0
2017-07-26T00:37:03.275Z,88.0
2017-07-26T00:42:03.045Z,88.3
2017-07-26T00:47:03.805Z,88.4
2017-07-26T00:52:03.630Z,88.9
2017-07-26T00:57:03.497Z,89.0
2017-07-26T01:02:03.260Z,89.4
2017-07-26T01:07:03.166Z,89.2
2017-07-26T01:12:03.167Z,89.1
2017-07-26T01:17:04.247Z,89.2
2017-07-26T01:22:03.774Z,89.1
2017-07-26T01:27:03.564Z,89.1
2017-07-26T01:32:03.338Z,89.5
2017-07-26T01:37:03.296Z,89.4
2017-07-26T01:42:03.082Z,89.6
2017-07-26T01:47:03.726Z,89.6
2017-07-26T01:52:03.347Z,89.5
2017-07-26T01:57:03.077Z,89.6
2017-07-26T02:02:04.101Z,90.0
2017-07-26T02:07:03.591Z,89.9
2017-07-26T02:12:03.643Z,90.2
2017-07-26T02:17:03.515Z,90.3
2017-07-26T02:22:03.204Z,90.1
2017-07-26T02:27:03.957Z,90.4
2017-07-26T02:32:03.608Z,90.4
2017-07-26T02:37:03.437Z,90.4
2017-07-26T02:42:03.634Z,90.5
2017-07-26T02:47:03.973Z,90.5
2017-07-26T02:52:03.321Z,90.3
2017-07-26T02:57:03.519Z,90.6
2017-07-26T03:02:03.898Z,90.4
2017-07-26T03:07:03.246Z,90.7
2017-07-26T03:12:03.711Z,90.9
2017-07-26T03:17:04.408Z,90.9
2017-07-26T03:22:03.397Z,90.8
2017-07-26T03:27:03.709Z,90.9
2017-07-26T03:32:15.094Z,90.9
2017-07-26T03:37:03.640Z,91.0
2017-07-26T03:42:03.140Z,90.9
2017-07-26T03:47:24.210Z,91.0
2017-07-26T03:52:03.101Z,90.9
2017-07-26T03:57:03.446Z,91.0
2017-07-26T04:02:22.151Z,91.2
2017-07-26T04:07:03.387Z,91.0
2017-07-26T04:12:03.096Z,90.9
2017-07-26T04:22:03.130Z,91.0
2017-07-26T04:27:03.806Z,91.0
2017-07-26T04:32:23.172Z,91.0
2017-07-26T04:37:03.048Z,91.1
2017-07-26T04:42:03.635Z,91.1
2017-07-26T04:47:28.196Z,91.0
2017-07-26T04:52:03.703Z,91.0
2017-07-26T04:57:03.275Z,91.3
2017-07-26T05:02:24.041Z,91.4
2017-07-26T05:07:03.617Z,91.1
2017-07-26T05:12:03.311Z,90.8
2017-07-26T05:17:28.803Z,90.7
2017-07-26T05:22:03.338Z,90.6
2017-07-26T05:27:03.685Z,90.6
2017-07-26T05:32:25.688Z,90.4
2017-07-26T05:37:03.602Z,90.3
2017-07-26T05:42:03.041Z,90.3
2017-07-26T05:47:22.256Z,90.1
2017-07-26T05:52:03.888Z,90.0
2017-07-26T05:57:03.366Z,90.0
2017-07-26T06:07:03.255Z,89.5
2017-07-26T06:12:03.858Z,89.5
2017-07-26T06:17:28.325Z,89.5
2017-07-26T06:22:03.378Z,88.8
2017-07-26T06:27:03.150Z,82.2
2017-07-26T06:32:28.197Z,82.2
2017-07-26T06:37:03.290Z,80.9
2017-07-26T06:42:03.774Z,80.2
2017-07-26T06:47:28.554Z,80.1
2017-07-26T06:52:03.623Z,80.2
2017-07-26T06:57:03.081Z,80.3
2017-07-26T07:02:22.122Z,79.7
2017-07-26T07:07:03.900Z,79.7
2017-07-26T07:12:03.472Z,79.4
2017-07-26T07:17:22.519Z,79.0
2017-07-26T07:22:03.233Z,79.0
2017-07-26T07:27:03.753Z,78.3
2017-07-26T07:32:23.333Z,76.4
2017-07-26T07:37:03.470Z,76.5
2017-07-26T07:42:03.804Z,75.7
2017-07-26T07:47:28.646Z,75.8
2017-07-26T07:52:03.640Z,61.8
2017-07-26T07:57:03.206Z,74.4
2017-07-26T08:02:23.902Z,73.7
2017-07-26T08:07:03.708Z,73.7
2017-07-26T08:12:03.335Z,73.7
2017-07-26T08:17:26.766Z,72.6
2017-07-26T08:22:03.712Z,72.6
2017-07-26T08:27:03.155Z,72.0
2017-07-26T08:32:24.838Z,71.3
2017-07-26T08:37:03.239Z,72.4
2017-07-26T08:42:03.722Z,73.6
2017-07-26T08:52:03.077Z,72.7
2017-07-26T08:57:03.612Z,72.7
2017-07-26T09:02:28.557Z,72.0
2017-07-26T09:07:03.490Z,58.9
2017-07-26T09:12:03.975Z,71.7
2017-07-26T09:17:28.841Z,71.9
2017-07-26T09:22:03.613Z,71.9
2017-07-26T09:27:03.940Z,72.1
2017-07-26T09:32:21.794Z,71.6
2017-07-26T09:37:03.275Z,71.5
2017-07-26T09:42:03.742Z,71.1
2017-07-26T09:47:31.956Z,70.5
2017-07-26T09:52:03.124Z,69.7
2017-07-26T09:57:03.666Z,69.5
2017-07-26T10:07:03.393Z,69.6
2017-07-26T10:12:03.962Z,70.8
2017-07-26T10:17:28.674Z,71.2
2017-07-26T10:22:03.420Z,72.2
2017-07-26T10:27:03.791Z,73.8
2017-07-26T10:32:28.439Z,75.2
2017-07-26T10:37:03.469Z,74.8
2017-07-26T10:42:03.831Z,73.8
2017-07-26T10:47:21.836Z,73.7
2017-07-26T10:52:03.434Z,75.0
2017-07-26T10:57:03.841Z,74.9
2017-07-26T11:02:28.360Z,75.4
2017-07-26T11:07:03.348Z,74.5
2017-07-26T11:12:03.861Z,74.4
2017-07-26T11:17:28.962Z,71.2
2017-07-26T11:22:03.225Z,70.6
2017-07-26T11:27:03.645Z,70.6
2017-07-26T11:32:21.603Z,70.0
2017-07-26T11:37:03.485Z,71.3
2017-07-26T11:42:03.798Z,71.6
2017-07-26T11:47:25.208Z,71.6
2017-07-26T11:52:03.017Z,70.9
2017-07-26T11:57:03.535Z,70.9
2017-07-26T12:02:26.573Z,71.4
2017-07-26T12:07:03.745Z,72.0
2017-07-26T12:12:03.257Z,72.0
2017-07-26T12:17:24.480Z,71.0
2017-07-26T12:22:04.026Z,71.0
2017-07-26T12:27:03.411Z,68.6
2017-07-26T12:32:22.081Z,66.1
2017-07-26T12:37:03.928Z,66.1
2017-07-26T12:42:03.342Z,67.2
2017-07-26T12:47:28.458Z,67.3
2017-07-26T12:52:03.691Z,67.6
2017-07-26T12:57:03.049Z,67.9
2017-07-26T13:02:21.918Z,67.0
2017-07-26T13:07:03.299Z,66.6
2017-07-26T13:12:03.839Z,66.6
2017-07-26T13:17:22.116Z,66.0
2017-07-26T13:22:03.569Z,65.8
2017-07-26T13:27:03.920Z,63.7
2017-07-26T13:32:26.110Z,63.7
2017-07-26T13:37:03.375Z,63.6
2017-07-26T13:42:03.770Z,63.5
2017-07-26T13:47:24.779Z,64.2
2017-07-26T13:52:03.758Z,64.6
2017-07-26T13:57:03.124Z,64.4
2017-07-26T14:02:23.986Z,65.6
2017-07-26T14:07:03.881Z,66.0
2017-07-26T14:12:03.340Z,65.7
2017-07-26T14:17:28.732Z,65.1
2017-07-26T14:22:03.473Z,63.6
2017-07-26T14:27:03.842Z,61.8
2017-07-26T14:32:23.177Z,59.9
2017-07-26T14:37:03.143Z,59.9
2017-07-26T14:42:03.743Z,60.4
2017-07-26T14:47:25.022Z,58.4
2017-07-26T14:52:03.700Z,56.5
2017-07-26T14:57:03.132Z,53.3
2017-07-26T15:02:23.922Z,51.3
2017-07-26T15:07:03.550Z,51.3
2017-07-26T15:12:04.007Z,50.3
2017-07-26T15:17:27.696Z,49.7
2017-07-26T15:22:03.762Z,46.6
2017-07-26T15:27:03.164Z,44.4
2017-07-26T15:32:25.252Z,44.5
2017-07-26T15:37:03.205Z,44.3
2017-07-26T15:42:03.644Z,42.9
2017-07-26T15:47:22.553Z,51.1
2017-07-26T15:52:03.694Z,50.6
2017-07-26T15:57:03.177Z,55.4
2017-07-26T16:02:24.142Z,44.2
2017-07-26T16:07:03.561Z,44.0
2017-07-26T16:12:03.947Z,50.6
2017-07-26T16:17:23.910Z,53.7
2017-07-26T16:22:03.883Z,52.3
2017-07-26T16:27:03.169Z,54.3
2017-07-26T16:32:21.611Z,56.4
2017-07-26T16:37:03.292Z,57.6
2017-07-26T16:42:03.688Z,53.1
2017-07-26T16:47:21.483Z,52.5
2017-07-26T16:52:03.238Z,45.2
2017-07-26T16:57:03.637Z,45.2
2017-07-26T17:02:19.927Z,44.6
2017-07-26T17:07:03.733Z,42.2
2017-07-26T17:12:03.322Z,42.0
2017-07-26T17:17:20.365Z,40.8
2017-07-26T17:22:03.087Z,42.7
2017-07-26T17:27:03.434Z,44.7
2017-07-26T17:32:17.233Z,45.2
2017-07-26T17:37:03.077Z,46.4
2017-07-26T17:42:03.425Z,43.7
2017-07-26T17:47:16.298Z,43.3
2017-07-26T17:52:03.146Z,43.3
2017-07-26T17:57:03.702Z,44.7
2017-07-26T18:02:20.993Z,49.8
2017-07-26T18:07:03.370Z,49.8
2017-07-26T18:12:03.816Z,53.0
2017-07-26T18:17:24.192Z,56.5
2017-07-26T18:22:03.312Z,58.9
2017-07-26T18:27:03.708Z,60.0
2017-07-26T18:37:03.840Z,61.2
2017-07-26T18:42:03.204Z,61.4
2017-07-26T18:47:25.102Z,61.4
2017-07-26T18:52:03.819Z,61.4
2017-07-26T18:57:03.306Z,61.6
2017-07-26T19:02:26.706Z,61.6
2017-07-26T19:07:03.661Z,61.8
2017-07-26T19:12:03.472Z,62.0
2017-07-26T19:17:26.058Z,62.2
2017-07-26T19:22:03.174Z,62.2
2017-07-26T19:27:03.578Z,62.3
2017-07-26T19:37:03.295Z,62.3
2017-07-26T19:42:03.665Z,62.2
2017-07-26T19:47:14.399Z,62.3
2017-07-26T19:52:03.306Z,62.1
2017-07-26T19:57:03.635Z,62.3
2017-07-26T20:02:12.043Z,61.3
2017-07-26T20:07:03.687Z,62.1
2017-07-26T20:12:03.226Z,62.3
2017-07-26T20:17:03.560Z,62.2
2017-07-26T20:22:03.928Z,62.2
2017-07-26T20:27:03.235Z,62.2
2017-07-26T20:32:03.590Z,62.1
2017-07-26T20:37:03.926Z,62.1
2017-07-26T20:42:03.301Z,62.0
2017-07-26T20:47:04.031Z,61.9
2017-07-26T20:52:03.936Z,62.1
2017-07-26T20:57:03.320Z,61.9
2017-07-26T21:02:03.618Z,62.0
2017-07-26T21:07:03.258Z,61.9
2017-07-26T21:12:03.579Z,62.0
2017-07-26T21:17:04.006Z,61.9
2017-07-26T21:22:03.379Z,61.9
2017-07-26T21:27:03.662Z,61.9
2017-07-26T21:32:04.011Z,62.0
2017-07-26T21:37:03.398Z,62.0
2017-07-26T21:42:03.634Z,61.9
2017-07-26T21:47:04.088Z,62.0
2017-07-26T21:52:03.404Z,62.0
2017-07-26T21:57:03.641Z,62.2
2017-07-26T22:02:03.132Z,62.0
2017-07-26T22:07:03.374Z,62.0
2017-07-26T22:12:03.229Z,62.1
2017-07-26T22:22:03.419Z,62.2
2017-07-26T22:27:03.611Z,62.3
2017-07-26T22:32:02.982Z,62.2
2017-07-26T22:37:03.421Z,62.1
2017-07-26T22:42:03.783Z,62.0
2017-07-26T22:47:03.260Z,62.1
2017-07-26T22:52:03.223Z,62.1
2017-07-26T22:57:03.616Z,62.0
2017-07-26T23:02:03.250Z,61.9
2017-07-26T23:07:03.538Z,61.8
2017-07-26T23:12:03.497Z,62.0
2017-07-26T23:17:03.482Z,61.9
2017-07-26T23:22:04.027Z,61.8
2017-07-26T23:27:03.642Z,61.8
2017-07-26T23:32:03.494Z,61.7
2017-07-26T23:37:03.986Z,61.6
2017-07-26T23:42:03.633Z,61.5
2017-07-26T23:47:03.498Z,61.3
2017-07-26T23:52:02.961Z,61.2
2017-07-26T23:57:03.725Z,61.3
